sensor_id;sensor_type;location;lat;lon;timestamp;temperature;humidity
66119;DHT22;52912;48.564;9.302;2023-05-10T00:02:14;13.78;96.14
66119;DHT22;52912;48.564;9.302;2023-05-10T00:04:39;13.78;95.92
66119;DHT22;52912;48.564;9.302;2023-05-10T00:07:06;13.78;96.23
66119;DHT22;52912;48.564;9.302;2023-05-10T00:09:31;13.77;96.20
66119;DHT22;52912;48.564;9.302;2023-05-10T00:11:57;13.74;96.23
66119;DHT22;52912;48.564;9.302;2023-05-10T00:14:22;13.67;96.18
66119;DHT22;52912;48.564;9.302;2023-05-10T00:16:48;13.71;96.60
66119;DHT22;52912;48.564;9.302;2023-05-10T00:19:13;13.73;96.51
66119;DHT22;52912;48.564;9.302;2023-05-10T00:21:38;13.63;96.81
66119;DHT22;52912;48.564;9.302;2023-05-10T00:24:05;13.74;96.56
66119;DHT22;52912;48.564;9.302;2023-05-10T00:26:31;13.60;96.93
66119;DHT22;52912;48.564;9.302;2023-05-10T00:28:56;13.67;97.07
66119;DHT22;52912;48.564;9.302;2023-05-10T00:31:22;13.68;97.03
66119;DHT22;52912;48.564;9.302;2023-05-10T00:33:47;13.61;97.06
66119;DHT22;52912;48.564;9.302;2023-05-10T00:36:13;13.54;97.49
66119;DHT22;52912;48.564;9.302;2023-05-10T00:38:38;13.70;97.52
66119;DHT22;52912;48.564;9.302;2023-05-10T00:41:05;13.67;97.47
66119;DHT22;52912;48.564;9.302;2023-05-10T00:43:30;13.58;97.44
66119;DHT22;52912;48.564;9.302;2023-05-10T00:45:56;13.54;97.77
66119;DHT22;52912;48.564;9.302;2023-05-10T00:48:22;13.58;97.90
66119;DHT22;52912;48.564;9.302;2023-05-10T00:50:47;13.53;97.80
66119;DHT22;52912;48.564;9.302;2023-05-10T00:53:14;13.58;97.56
66119;DHT22;52912;48.564;9.302;2023-05-10T00:55:40;13.48;98.15
66119;DHT22;52912;48.564;9.302;2023-05-10T00:58:07;13.42;98.09
66119;DHT22;52912;48.564;9.302;2023-05-10T01:00:33;13.35;98.34
66119;DHT22;52912;48.564;9.302;2023-05-10T01:02:58;13.43;98.51
66119;DHT22;52912;48.564;9.302;2023-05-10T01:05:24;13.42;98.52
66119;DHT22;52912;48.564;9.302;2023-05-10T01:07:50;13.46;98.18
66119;DHT22;52912;48.564;9.302;2023-05-10T01:10:15;13.35;98.48
66119;DHT22;52912;48.564;9.302;2023-05-10T01:12:45;13.30;98.77
66119;DHT22;52912;48.564;9.302;2023-05-10T01:15:13;13.23;98.73
66119;DHT22;52912;48.564;9.302;2023-05-10T01:17:42;13.26;98.55
66119;DHT22;52912;48.564;9.302;2023-05-10T01:20:09;13.35;98.09
66119;DHT22;52912;48.564;9.302;2023-05-10T01:22:58;13.35;98.31
66119;DHT22;52912;48.564;9.302;2023-05-10T01:25:53;13.37;97.81
66119;DHT22;52912;48.564;9.302;2023-05-10T01:28:38;13.20;98.31
66119;DHT22;52912;48.564;9.302;2023-05-10T01:31:18;13.16;98.30
66119;DHT22;52912;48.564;9.302;2023-05-10T01:33:52;13.27;98.17
66119;DHT22;52912;48.564;9.302;2023-05-10T01:36:27;13.16;98.13
66119;DHT22;52912;48.564;9.302;2023-05-10T01:39:00;13.18;98.30
66119;DHT22;52912;48.564;9.302;2023-05-10T01:41:32;13.15;98.44
66119;DHT22;52912;48.564;9.302;2023-05-10T01:44:04;13.18;98.55
66119;DHT22;52912;48.564;9.302;2023-05-10T01:46:35;13.16;98.46
66119;DHT22;52912;48.564;9.302;2023-05-10T01:49:03;13.22;98.86
66119;DHT22;52912;48.564;9.302;2023-05-10T01:51:39;13.27;98.06
66119;DHT22;52912;48.564;9.302;2023-05-10T01:54:07;13.32;98.28
66119;DHT22;52912;48.564;9.302;2023-05-10T01:56:35;13.33;98.12
66119;DHT22;52912;48.564;9.302;2023-05-10T01:59:05;13.26;98.19
66119;DHT22;52912;48.564;9.302;2023-05-10T02:01:32;13.22;97.97
66119;DHT22;52912;48.564;9.302;2023-05-10T02:03:59;13.18;97.95
66119;DHT22;52912;48.564;9.302;2023-05-10T02:06:27;13.13;98.22
66119;DHT22;52912;48.564;9.302;2023-05-10T02:08:53;13.22;98.10
66119;DHT22;52912;48.564;9.302;2023-05-10T02:11:20;13.24;97.76
66119;DHT22;52912;48.564;9.302;2023-05-10T02:13:47;13.30;96.96
66119;DHT22;52912;48.564;9.302;2023-05-10T02:16:14;13.23;97.38
66119;DHT22;52912;48.564;9.302;2023-05-10T02:18:41;13.09;97.25
66119;DHT22;52912;48.564;9.302;2023-05-10T02:21:08;13.15;97.47
66119;DHT22;52912;48.564;9.302;2023-05-10T02:23:37;13.16;97.71
66119;DHT22;52912;48.564;9.302;2023-05-10T02:26:03;13.05;98.04
66119;DHT22;52912;48.564;9.302;2023-05-10T02:28:31;13.02;98.37
66119;DHT22;52912;48.564;9.302;2023-05-10T02:30:57;13.05;98.06
66119;DHT22;52912;48.564;9.302;2023-05-10T02:33:23;13.03;97.76
66119;DHT22;52912;48.564;9.302;2023-05-10T02:35:50;13.06;97.61
66119;DHT22;52912;48.564;9.302;2023-05-10T02:38:17;13.05;97.86
66119;DHT22;52912;48.564;9.302;2023-05-10T02:40:46;13.01;97.93
66119;DHT22;52912;48.564;9.302;2023-05-10T02:43:14;13.05;97.22
66119;DHT22;52912;48.564;9.302;2023-05-10T02:45:41;13.02;96.79
66119;DHT22;52912;48.564;9.302;2023-05-10T02:48:08;13.12;97.06
66119;DHT22;52912;48.564;9.302;2023-05-10T02:50:33;13.05;96.83
66119;DHT22;52912;48.564;9.302;2023-05-10T02:53:01;12.99;96.87
66119;DHT22;52912;48.564;9.302;2023-05-10T02:55:32;12.94;97.23
66119;DHT22;52912;48.564;9.302;2023-05-10T02:58:01;12.95;97.26
66119;DHT22;52912;48.564;9.302;2023-05-10T03:00:27;12.87;96.73
66119;DHT22;52912;48.564;9.302;2023-05-10T03:02:53;12.91;96.74
66119;DHT22;52912;48.564;9.302;2023-05-10T03:05:19;12.88;96.98
66119;DHT22;52912;48.564;9.302;2023-05-10T03:07:45;12.84;96.80
66119;DHT22;52912;48.564;9.302;2023-05-10T03:10:11;12.75;97.05
66119;DHT22;52912;48.564;9.302;2023-05-10T03:12:49;12.68;97.38
66119;DHT22;52912;48.564;9.302;2023-05-10T03:15:22;12.68;97.28
66119;DHT22;52912;48.564;9.302;2023-05-10T03:17:55;12.74;97.26
66119;DHT22;52912;48.564;9.302;2023-05-10T03:20:23;12.78;96.94
66119;DHT22;52912;48.564;9.302;2023-05-10T03:22:53;12.85;96.58
66119;DHT22;52912;48.564;9.302;2023-05-10T03:25:21;12.68;97.03
66119;DHT22;52912;48.564;9.302;2023-05-10T03:27:47;12.68;97.30
66119;DHT22;52912;48.564;9.302;2023-05-10T03:30:13;12.67;97.06
66119;DHT22;52912;48.564;9.302;2023-05-10T03:32:40;12.56;97.44
66119;DHT22;52912;48.564;9.302;2023-05-10T03:35:06;12.56;97.24
66119;DHT22;52912;48.564;9.302;2023-05-10T03:37:32;12.51;97.81
66119;DHT22;52912;48.564;9.302;2023-05-10T03:39:57;12.44;97.70
66119;DHT22;52912;48.564;9.302;2023-05-10T03:42:23;12.50;97.66
66119;DHT22;52912;48.564;9.302;2023-05-10T03:44:49;12.54;97.15
66119;DHT22;52912;48.564;9.302;2023-05-10T03:47:14;12.51;97.60
66119;DHT22;52912;48.564;9.302;2023-05-10T03:49:41;12.47;97.71
66119;DHT22;52912;48.564;9.302;2023-05-10T03:52:06;12.58;97.78
66119;DHT22;52912;48.564;9.302;2023-05-10T03:54:32;12.43;97.49
66119;DHT22;52912;48.564;9.302;2023-05-10T03:56:57;12.39;97.97
66119;DHT22;52912;48.564;9.302;2023-05-10T03:59:22;12.40;97.59
66119;DHT22;52912;48.564;9.302;2023-05-10T04:01:48;12.32;97.85
66119;DHT22;52912;48.564;9.302;2023-05-10T04:04:13;12.29;98.38
66119;DHT22;52912;48.564;9.302;2023-05-10T04:06:40;12.43;98.19
66119;DHT22;52912;48.564;9.302;2023-05-10T04:09:06;12.41;97.97
66119;DHT22;52912;48.564;9.302;2023-05-10T04:11:31;12.36;97.87
66119;DHT22;52912;48.564;9.302;2023-05-10T04:13:57;12.53;98.15
66119;DHT22;52912;48.564;9.302;2023-05-10T04:16:22;12.50;98.35
66119;DHT22;52912;48.564;9.302;2023-05-10T04:18:47;12.46;98.27
66119;DHT22;52912;48.564;9.302;2023-05-10T04:21:13;12.46;98.44
66119;DHT22;52912;48.564;9.302;2023-05-10T04:23:40;12.56;97.94
66119;DHT22;52912;48.564;9.302;2023-05-10T04:26:06;12.50;97.99
66119;DHT22;52912;48.564;9.302;2023-05-10T04:28:32;12.36;98.15
66119;DHT22;52912;48.564;9.302;2023-05-10T04:31:01;12.41;98.27
66119;DHT22;52912;48.564;9.302;2023-05-10T04:33:27;12.40;98.43
66119;DHT22;52912;48.564;9.302;2023-05-10T04:35:52;12.50;98.38
66119;DHT22;52912;48.564;9.302;2023-05-10T04:38:17;12.51;98.39
66119;DHT22;52912;48.564;9.302;2023-05-10T04:40:44;12.54;98.46
66119;DHT22;52912;48.564;9.302;2023-05-10T04:43:10;12.54;98.67
66119;DHT22;52912;48.564;9.302;2023-05-10T04:45:35;12.63;98.40
66119;DHT22;52912;48.564;9.302;2023-05-10T04:48:00;12.68;98.31
66119;DHT22;52912;48.564;9.302;2023-05-10T04:50:26;12.58;98.01
66119;DHT22;52912;48.564;9.302;2023-05-10T04:52:51;12.61;98.42
66119;DHT22;52912;48.564;9.302;2023-05-10T04:55:17;12.61;97.80
66119;DHT22;52912;48.564;9.302;2023-05-10T04:57:44;12.75;97.53
66119;DHT22;52912;48.564;9.302;2023-05-10T05:00:10;12.78;97.33
66119;DHT22;52912;48.564;9.302;2023-05-10T05:02:35;12.74;97.11
66119;DHT22;52912;48.564;9.302;2023-05-10T05:05:01;12.75;97.31
66119;DHT22;52912;48.564;9.302;2023-05-10T05:07:26;12.81;97.46
66119;DHT22;52912;48.564;9.302;2023-05-10T05:09:52;12.68;97.65
66119;DHT22;52912;48.564;9.302;2023-05-10T05:12:17;12.61;97.69
66119;DHT22;52912;48.564;9.302;2023-05-10T05:14:44;12.68;97.48
66119;DHT22;52912;48.564;9.302;2023-05-10T05:17:09;12.68;96.98
66119;DHT22;52912;48.564;9.302;2023-05-10T05:19:35;12.77;96.97
66119;DHT22;52912;48.564;9.302;2023-05-10T05:22:00;12.85;96.47
66119;DHT22;52912;48.564;9.302;2023-05-10T05:24:26;12.87;96.72
66119;DHT22;52912;48.564;9.302;2023-05-10T05:26:51;12.78;96.26
66119;DHT22;52912;48.564;9.302;2023-05-10T05:29:17;12.87;95.99
66119;DHT22;52912;48.564;9.302;2023-05-10T05:31:43;12.85;96.54
66119;DHT22;52912;48.564;9.302;2023-05-10T05:34:09;12.88;96.48
66119;DHT22;52912;48.564;9.302;2023-05-10T05:36:36;12.87;96.65
66119;DHT22;52912;48.564;9.302;2023-05-10T05:39:02;12.88;96.27
66119;DHT22;52912;48.564;9.302;2023-05-10T05:41:27;12.87;96.26
66119;DHT22;52912;48.564;9.302;2023-05-10T05:43:53;12.77;96.28
66119;DHT22;52912;48.564;9.302;2023-05-10T05:46:18;12.83;96.72
66119;DHT22;52912;48.564;9.302;2023-05-10T05:48:45;12.85;96.26
66119;DHT22;52912;48.564;9.302;2023-05-10T05:51:10;12.85;96.28
66119;DHT22;52912;48.564;9.302;2023-05-10T05:53:36;13.01;96.38
66119;DHT22;52912;48.564;9.302;2023-05-10T05:56:02;13.09;96.54
66119;DHT22;52912;48.564;9.302;2023-05-10T05:58:27;13.09;95.47
66119;DHT22;52912;48.564;9.302;2023-05-10T06:00:52;13.20;95.82
66119;DHT22;52912;48.564;9.302;2023-05-10T06:03:18;13.22;94.97
66119;DHT22;52912;48.564;9.302;2023-05-10T06:05:45;13.15;95.87
66119;DHT22;52912;48.564;9.302;2023-05-10T06:08:10;13.13;95.33
66119;DHT22;52912;48.564;9.302;2023-05-10T06:10:36;13.18;95.64
66119;DHT22;52912;48.564;9.302;2023-05-10T06:13:01;13.16;95.59
66119;DHT22;52912;48.564;9.302;2023-05-10T06:15:27;13.24;95.98
66119;DHT22;52912;48.564;9.302;2023-05-10T06:17:53;13.09;95.57
66119;DHT22;52912;48.564;9.302;2023-05-10T06:20:18;13.03;95.83
66119;DHT22;52912;48.564;9.302;2023-05-10T06:22:45;13.18;95.58
66119;DHT22;52912;48.564;9.302;2023-05-10T06:25:10;13.15;95.24
66119;DHT22;52912;48.564;9.302;2023-05-10T06:27:36;13.23;95.27
66119;DHT22;52912;48.564;9.302;2023-05-10T06:30:02;13.13;95.29
66119;DHT22;52912;48.564;9.302;2023-05-10T06:32:27;13.27;95.25
66119;DHT22;52912;48.564;9.302;2023-05-10T06:34:53;13.24;95.37
66119;DHT22;52912;48.564;9.302;2023-05-10T06:37:18;13.33;95.40
66119;DHT22;52912;48.564;9.302;2023-05-10T06:39:45;13.42;94.91
66119;DHT22;52912;48.564;9.302;2023-05-10T06:42:10;13.39;95.07
66119;DHT22;52912;48.564;9.302;2023-05-10T06:44:36;13.37;95.12
66119;DHT22;52912;48.564;9.302;2023-05-10T06:47:01;13.44;94.13
66119;DHT22;52912;48.564;9.302;2023-05-10T06:49:27;13.51;94.71
66119;DHT22;52912;48.564;9.302;2023-05-10T06:51:52;13.48;94.67
66119;DHT22;52912;48.564;9.302;2023-05-10T06:54:17;13.47;94.42
66119;DHT22;52912;48.564;9.302;2023-05-10T06:56:44;13.54;94.56
66119;DHT22;52912;48.564;9.302;2023-05-10T06:59:10;13.54;94.98
66119;DHT22;52912;48.564;9.302;2023-05-10T07:01:35;13.58;94.63
66119;DHT22;52912;48.564;9.302;2023-05-10T07:04:01;13.57;94.34
66119;DHT22;52912;48.564;9.302;2023-05-10T07:06:26;13.61;93.40
66119;DHT22;52912;48.564;9.302;2023-05-10T07:08:51;13.77;93.56
66119;DHT22;52912;48.564;9.302;2023-05-10T07:11:17;13.82;93.13
66119;DHT22;52912;48.564;9.302;2023-05-10T07:13:44;13.97;93.43
66119;DHT22;52912;48.564;9.302;2023-05-10T07:16:09;13.98;93.25
66119;DHT22;52912;48.564;9.302;2023-05-10T07:18:35;13.97;93.43
66119;DHT22;52912;48.564;9.302;2023-05-10T07:21:00;14.01;92.75
66119;DHT22;52912;48.564;9.302;2023-05-10T07:23:26;14.05;93.23
66119;DHT22;52912;48.564;9.302;2023-05-10T07:25:51;14.12;92.65
66119;DHT22;52912;48.564;9.302;2023-05-10T07:28:17;14.18;91.97
66119;DHT22;52912;48.564;9.302;2023-05-10T07:30:44;14.06;91.83
66119;DHT22;52912;48.564;9.302;2023-05-10T07:33:11;14.15;92.19
66119;DHT22;52912;48.564;9.302;2023-05-10T07:35:37;14.15;91.93
66119;DHT22;52912;48.564;9.302;2023-05-10T07:38:02;14.06;91.03
66119;DHT22;52912;48.564;9.302;2023-05-10T07:40:28;14.16;91.84
66119;DHT22;52912;48.564;9.302;2023-05-10T07:42:54;14.01;91.07
66119;DHT22;52912;48.564;9.302;2023-05-10T07:45:19;14.01;90.49
66119;DHT22;52912;48.564;9.302;2023-05-10T07:47:46;13.99;91.34
66119;DHT22;52912;48.564;9.302;2023-05-10T07:50:11;14.05;91.65
66119;DHT22;52912;48.564;9.302;2023-05-10T07:52:37;13.97;91.29
66119;DHT22;52912;48.564;9.302;2023-05-10T07:55:03;14.01;90.94
66119;DHT22;52912;48.564;9.302;2023-05-10T07:57:28;14.09;91.03
66119;DHT22;52912;48.564;9.302;2023-05-10T07:59:54;14.13;90.98
66119;DHT22;52912;48.564;9.302;2023-05-10T08:02:19;14.08;90.79
66119;DHT22;52912;48.564;9.302;2023-05-10T08:04:46;14.13;90.67
66119;DHT22;52912;48.564;9.302;2023-05-10T08:07:11;14.05;90.76
66119;DHT22;52912;48.564;9.302;2023-05-10T08:09:37;14.04;90.53
66119;DHT22;52912;48.564;9.302;2023-05-10T08:12:02;14.13;90.39
66119;DHT22;52912;48.564;9.302;2023-05-10T08:14:29;14.18;90.68
66119;DHT22;52912;48.564;9.302;2023-05-10T08:16:54;14.34;90.62
66119;DHT22;52912;48.564;9.302;2023-05-10T08:19:20;14.29;90.03
66119;DHT22;52912;48.564;9.302;2023-05-10T08:21:46;14.16;89.94
66119;DHT22;52912;48.564;9.302;2023-05-10T08:24:12;14.12;89.82
66119;DHT22;52912;48.564;9.302;2023-05-10T08:26:37;14.34;90.08
66119;DHT22;52912;48.564;9.302;2023-05-10T08:29:03;14.40;89.65
66119;DHT22;52912;48.564;9.302;2023-05-10T08:31:28;14.43;89.68
66119;DHT22;52912;48.564;9.302;2023-05-10T08:33:54;14.54;89.38
66119;DHT22;52912;48.564;9.302;2023-05-10T08:36:19;14.64;89.76
66119;DHT22;52912;48.564;9.302;2023-05-10T08:38:46;14.80;89.46
66119;DHT22;52912;48.564;9.302;2023-05-10T08:41:12;14.68;87.74
66119;DHT22;52912;48.564;9.302;2023-05-10T08:43:38;14.89;87.92
66119;DHT22;52912;48.564;9.302;2023-05-10T08:46:05;14.99;88.09
66119;DHT22;52912;48.564;9.302;2023-05-10T08:48:33;14.93;87.41
66119;DHT22;52912;48.564;9.302;2023-05-10T08:51:00;14.89;87.48
66119;DHT22;52912;48.564;9.302;2023-05-10T08:53:27;14.96;87.21
66119;DHT22;52912;48.564;9.302;2023-05-10T08:55:55;15.12;87.23
66119;DHT22;52912;48.564;9.302;2023-05-10T08:58:20;14.99;87.17
66119;DHT22;52912;48.564;9.302;2023-05-10T09:00:48;15.15;87.22
66119;DHT22;52912;48.564;9.302;2023-05-10T09:03:14;15.26;87.18
66119;DHT22;52912;48.564;9.302;2023-05-10T09:05:39;15.37;87.13
66119;DHT22;52912;48.564;9.302;2023-05-10T09:08:06;15.37;86.91
66119;DHT22;52912;48.564;9.302;2023-05-10T09:10:31;15.43;86.80
66119;DHT22;52912;48.564;9.302;2023-05-10T09:12:59;15.43;86.52
66119;DHT22;52912;48.564;9.302;2023-05-10T09:15:24;15.61;85.33
66119;DHT22;52912;48.564;9.302;2023-05-10T09:17:50;15.71;85.14
66119;DHT22;52912;48.564;9.302;2023-05-10T09:20:16;15.78;84.82
66119;DHT22;52912;48.564;9.302;2023-05-10T09:22:41;15.81;84.53
66119;DHT22;52912;48.564;9.302;2023-05-10T09:25:08;15.81;85.38
66119;DHT22;52912;48.564;9.302;2023-05-10T09:27:34;15.84;86.42
66119;DHT22;52912;48.564;9.302;2023-05-10T09:30:00;15.71;84.90
66119;DHT22;52912;48.564;9.302;2023-05-10T09:32:36;15.74;85.19
66119;DHT22;52912;48.564;9.302;2023-05-10T09:35:06;15.65;84.32
66119;DHT22;52912;48.564;9.302;2023-05-10T09:37:32;15.68;84.85
66119;DHT22;52912;48.564;9.302;2023-05-10T09:39:57;15.75;85.10
66119;DHT22;52912;48.564;9.302;2023-05-10T09:42:23;15.67;84.30
66119;DHT22;52912;48.564;9.302;2023-05-10T09:44:49;15.82;83.15
66119;DHT22;52912;48.564;9.302;2023-05-10T09:47:18;15.84;81.84
66119;DHT22;52912;48.564;9.302;2023-05-10T09:49:43;15.99;81.99
66119;DHT22;52912;48.564;9.302;2023-05-10T09:52:09;16.26;81.86
66119;DHT22;52912;48.564;9.302;2023-05-10T09:54:34;16.23;80.85
66119;DHT22;52912;48.564;9.302;2023-05-10T09:57:00;16.49;81.00
66119;DHT22;52912;48.564;9.302;2023-05-10T09:59:26;16.78;81.04
66119;DHT22;52912;48.564;9.302;2023-05-10T10:01:52;16.99;79.73
66119;DHT22;52912;48.564;9.302;2023-05-10T10:04:20;16.91;78.42
66119;DHT22;52912;48.564;9.302;2023-05-10T10:06:45;17.19;78.20
66119;DHT22;52912;48.564;9.302;2023-05-10T10:09:11;17.19;78.56
66119;DHT22;52912;48.564;9.302;2023-05-10T10:11:37;17.39;77.16
66119;DHT22;52912;48.564;9.302;2023-05-10T10:14:03;17.43;75.92
66119;DHT22;52912;48.564;9.302;2023-05-10T10:16:29;17.70;76.31
66119;DHT22;52912;48.564;9.302;2023-05-10T10:18:55;17.84;75.57
66119;DHT22;52912;48.564;9.302;2023-05-10T10:21:22;17.91;76.41
66119;DHT22;52912;48.564;9.302;2023-05-10T10:23:48;17.99;74.41
66119;DHT22;52912;48.564;9.302;2023-05-10T10:26:14;18.29;76.08
66119;DHT22;52912;48.564;9.302;2023-05-10T10:28:48;17.94;74.50
66119;DHT22;52912;48.564;9.302;2023-05-10T10:34:05;17.85;73.75
66119;DHT22;52912;48.564;9.302;2023-05-10T10:36:32;17.63;74.38
66119;DHT22;52912;48.564;9.302;2023-05-10T10:38:58;17.27;76.77
66119;DHT22;52912;48.564;9.302;2023-05-10T10:41:29;16.65;78.60
66119;DHT22;52912;48.564;9.302;2023-05-10T10:44:22;16.16;80.39
66119;DHT22;52912;48.564;9.302;2023-05-10T10:47:02;15.74;81.45
66119;DHT22;52912;48.564;9.302;2023-05-10T10:49:30;15.50;82.53
66119;DHT22;52912;48.564;9.302;2023-05-10T10:52:24;15.70;83.75
66119;DHT22;52912;48.564;9.302;2023-05-10T10:54:50;15.64;84.51
66119;DHT22;52912;48.564;9.302;2023-05-10T10:57:18;15.67;83.97
66119;DHT22;52912;48.564;9.302;2023-05-10T10:59:44;15.60;83.63
66119;DHT22;52912;48.564;9.302;2023-05-10T11:02:10;15.77;83.36
66119;DHT22;52912;48.564;9.302;2023-05-10T11:04:42;15.88;83.18
66119;DHT22;52912;48.564;9.302;2023-05-10T11:07:18;16.29;81.57
66119;DHT22;52912;48.564;9.302;2023-05-10T11:09:44;16.49;81.72
66119;DHT22;52912;48.564;9.302;2023-05-10T11:12:09;16.51;81.33
66119;DHT22;52912;48.564;9.302;2023-05-10T11:14:35;16.30;80.92
66119;DHT22;52912;48.564;9.302;2023-05-10T11:17:01;16.08;82.16
66119;DHT22;52912;48.564;9.302;2023-05-10T11:19:27;15.99;82.31
66119;DHT22;52912;48.564;9.302;2023-05-10T11:22:13;15.85;82.22
66119;DHT22;52912;48.564;9.302;2023-05-10T11:24:40;15.89;82.38
66119;DHT22;52912;48.564;9.302;2023-05-10T11:27:20;15.68;84.87
66119;DHT22;52912;48.564;9.302;2023-05-10T11:29:46;15.46;87.03
66119;DHT22;52912;48.564;9.302;2023-05-10T11:32:16;15.36;88.29
66119;DHT22;52912;48.564;9.302;2023-05-10T11:34:41;14.68;84.59
66119;DHT22;52912;48.564;9.302;2023-05-10T11:37:07;14.46;85.84
66119;DHT22;52912;48.564;9.302;2023-05-10T11:39:32;14.13;86.60
66119;DHT22;52912;48.564;9.302;2023-05-10T11:41:59;14.04;87.91
66119;DHT22;52912;48.564;9.302;2023-05-10T11:44:29;13.92;88.10
66119;DHT22;52912;48.564;9.302;2023-05-10T11:46:54;13.92;88.05
66119;DHT22;52912;48.564;9.302;2023-05-10T11:49:24;13.75;87.20
66119;DHT22;52912;48.564;9.302;2023-05-10T11:51:50;13.81;88.17
66119;DHT22;52912;48.564;9.302;2023-05-10T11:54:16;13.88;90.57
66119;DHT22;52912;48.564;9.302;2023-05-10T11:56:41;13.73;87.33
66119;DHT22;52912;48.564;9.302;2023-05-10T11:59:08;13.79;88.94
66119;DHT22;52912;48.564;9.302;2023-05-10T12:01:34;13.92;88.19
66119;DHT22;52912;48.564;9.302;2023-05-10T12:04:00;13.98;89.50
66119;DHT22;52912;48.564;9.302;2023-05-10T12:06:28;13.85;88.41
66119;DHT22;52912;48.564;9.302;2023-05-10T12:08:53;13.84;89.39
66119;DHT22;52912;48.564;9.302;2023-05-10T12:11:19;13.77;88.17
66119;DHT22;52912;48.564;9.302;2023-05-10T12:13:44;14.02;88.97
66119;DHT22;52912;48.564;9.302;2023-05-10T12:16:14;13.94;88.88
66119;DHT22;52912;48.564;9.302;2023-05-10T12:18:43;13.98;88.25
66119;DHT22;52912;48.564;9.302;2023-05-10T12:21:09;13.98;89.36
66119;DHT22;52912;48.564;9.302;2023-05-10T12:23:35;13.88;89.55
66119;DHT22;52912;48.564;9.302;2023-05-10T12:26:02;13.98;88.52
66119;DHT22;52912;48.564;9.302;2023-05-10T12:28:29;14.06;89.14
66119;DHT22;52912;48.564;9.302;2023-05-10T12:30:57;14.13;88.00
66119;DHT22;52912;48.564;9.302;2023-05-10T12:33:24;14.41;88.90
66119;DHT22;52912;48.564;9.302;2023-05-10T12:35:52;14.43;86.54
66119;DHT22;52912;48.564;9.302;2023-05-10T12:38:28;14.77;87.76
66119;DHT22;52912;48.564;9.302;2023-05-10T12:40:54;14.82;86.77
66119;DHT22;52912;48.564;9.302;2023-05-10T12:43:19;14.74;86.50
66119;DHT22;52912;48.564;9.302;2023-05-10T12:45:45;14.89;86.69
66119;DHT22;52912;48.564;9.302;2023-05-10T12:48:10;15.10;87.18
66119;DHT22;52912;48.564;9.302;2023-05-10T12:50:37;15.09;86.47
66119;DHT22;52912;48.564;9.302;2023-05-10T12:53:02;15.03;85.44
66119;DHT22;52912;48.564;9.302;2023-05-10T12:55:28;15.26;85.17
66119;DHT22;52912;48.564;9.302;2023-05-10T12:57:53;15.18;86.10
66119;DHT22;52912;48.564;9.302;2023-05-10T13:00:19;15.27;84.88
66119;DHT22;52912;48.564;9.302;2023-05-10T13:02:44;15.54;85.31
66119;DHT22;52912;48.564;9.302;2023-05-10T13:05:10;15.64;85.09
66119;DHT22;52912;48.564;9.302;2023-05-10T13:07:37;15.53;84.76
66119;DHT22;52912;48.564;9.302;2023-05-10T13:10:02;15.68;84.22
66119;DHT22;52912;48.564;9.302;2023-05-10T13:12:28;15.75;83.48
66119;DHT22;52912;48.564;9.302;2023-05-10T13:14:53;15.87;83.93
66119;DHT22;52912;48.564;9.302;2023-05-10T13:17:19;15.79;82.70
66119;DHT22;52912;48.564;9.302;2023-05-10T13:19:44;15.87;82.35
66119;DHT22;52912;48.564;9.302;2023-05-10T13:22:10;15.96;82.50
66119;DHT22;52912;48.564;9.302;2023-05-10T13:24:36;16.09;83.50
66119;DHT22;52912;48.564;9.302;2023-05-10T13:27:02;16.01;81.12
66119;DHT22;52912;48.564;9.302;2023-05-10T13:29:27;16.20;80.28
66119;DHT22;52912;48.564;9.302;2023-05-10T13:31:53;16.29;77.83
66119;DHT22;52912;48.564;9.302;2023-05-10T13:34:18;16.26;79.72
66119;DHT22;52912;48.564;9.302;2023-05-10T13:36:44;16.37;79.44
66119;DHT22;52912;48.564;9.302;2023-05-10T13:39:09;16.50;78.28
66119;DHT22;52912;48.564;9.302;2023-05-10T13:41:36;16.32;76.54
66119;DHT22;52912;48.564;9.302;2023-05-10T13:44:01;16.33;78.14
66119;DHT22;52912;48.564;9.302;2023-05-10T13:46:27;16.20;80.01
66119;DHT22;52912;48.564;9.302;2023-05-10T13:48:52;16.36;81.42
66119;DHT22;52912;48.564;9.302;2023-05-10T13:51:18;16.23;80.69
66119;DHT22;52912;48.564;9.302;2023-05-10T13:53:43;16.04;80.54
66119;DHT22;52912;48.564;9.302;2023-05-10T13:56:09;15.87;80.41
66119;DHT22;52912;48.564;9.302;2023-05-10T13:58:36;15.91;80.99
66119;DHT22;52912;48.564;9.302;2023-05-10T14:01:01;15.87;80.14
66119;DHT22;52912;48.564;9.302;2023-05-10T14:03:26;15.81;79.91
66119;DHT22;52912;48.564;9.302;2023-05-10T14:05:52;15.87;80.50
66119;DHT22;52912;48.564;9.302;2023-05-10T14:08:17;15.78;79.95
66119;DHT22;52912;48.564;9.302;2023-05-10T14:10:43;15.84;79.41
66119;DHT22;52912;48.564;9.302;2023-05-10T14:13:08;16.15;79.00
66119;DHT22;52912;48.564;9.302;2023-05-10T14:15:35;16.23;78.49
66119;DHT22;52912;48.564;9.302;2023-05-10T14:18:00;16.22;77.73
66119;DHT22;52912;48.564;9.302;2023-05-10T14:20:26;16.41;78.81
66119;DHT22;52912;48.564;9.302;2023-05-10T14:22:51;16.41;77.83
66119;DHT22;52912;48.564;9.302;2023-05-10T14:25:17;16.33;77.34
66119;DHT22;52912;48.564;9.302;2023-05-10T14:27:43;16.39;77.70
66119;DHT22;52912;48.564;9.302;2023-05-10T14:30:09;16.44;77.25
66119;DHT22;52912;48.564;9.302;2023-05-10T14:32:36;16.39;77.27
66119;DHT22;52912;48.564;9.302;2023-05-10T14:35:01;16.50;78.00
66119;DHT22;52912;48.564;9.302;2023-05-10T14:37:27;16.36;77.93
66119;DHT22;52912;48.564;9.302;2023-05-10T14:39:52;16.37;77.89
66119;DHT22;52912;48.564;9.302;2023-05-10T14:42:18;16.40;77.90
66119;DHT22;52912;48.564;9.302;2023-05-10T14:44:43;16.47;77.21
66119;DHT22;52912;48.564;9.302;2023-05-10T14:47:08;16.49;79.17
66119;DHT22;52912;48.564;9.302;2023-05-10T14:49:35;16.50;79.70
66119;DHT22;52912;48.564;9.302;2023-05-10T14:52:01;16.50;78.64
66119;DHT22;52912;48.564;9.302;2023-05-10T14:54:26;16.44;77.36
66119;DHT22;52912;48.564;9.302;2023-05-10T14:56:52;16.49;76.15
66119;DHT22;52912;48.564;9.302;2023-05-10T14:59:17;16.47;78.43
66119;DHT22;52912;48.564;9.302;2023-05-10T15:01:42;16.40;78.53
66119;DHT22;52912;48.564;9.302;2023-05-10T15:04:08;16.29;78.95
66119;DHT22;52912;48.564;9.302;2023-05-10T15:06:35;16.33;78.96
66119;DHT22;52912;48.564;9.302;2023-05-10T15:09:01;16.17;78.88
66119;DHT22;52912;48.564;9.302;2023-05-10T15:11:27;16.27;77.50
66119;DHT22;52912;48.564;9.302;2023-05-10T15:13:53;16.46;76.31
66119;DHT22;52912;48.564;9.302;2023-05-10T15:16:18;16.47;78.02
66119;DHT22;52912;48.564;9.302;2023-05-10T15:18:44;16.50;77.62
66119;DHT22;52912;48.564;9.302;2023-05-10T15:21:09;16.60;77.00
66119;DHT22;52912;48.564;9.302;2023-05-10T15:23:36;16.65;76.53
66119;DHT22;52912;48.564;9.302;2023-05-10T15:26:02;16.74;77.15
66119;DHT22;52912;48.564;9.302;2023-05-10T15:28:27;16.88;77.11
66119;DHT22;52912;48.564;9.302;2023-05-10T15:30:52;16.94;76.12